sensor_id;sensor_type;location;lat;lon;timestamp;P1;durP1;ratioP1;P2;durP2;ratioP2
5175;SDS011;2607;50.934;6.934;2023-07-08T00:01:12;6.67;;;6.07;;
5175;SDS011;2607;50.934;6.934;2023-07-08T00:03:39;17.97;;;12.97;;
5175;SDS011;2607;50.934;6.934;2023-07-08T00:06:07;7.13;;;6.00;;
5175;SDS011;2607;50.934;6.934;2023-07-08T00:08:38;6.77;;;6.07;;
5175;SDS011;2607;50.934;6.934;2023-07-08T00:11:07;6.90;;;6.00;;
5175;SDS011;2607;50.934;6.934;2023-07-08T00:13:35;34.07;;;19.53;;
5175;SDS011;2607;50.934;6.934;2023-07-08T00:16:00;11.10;;;9.13;;
5175;SDS011;2607;50.934;6.934;2023-07-08T00:18:26;10.47;;;8.60;;
5175;SDS011;2607;50.934;6.934;2023-07-08T00:20:52;10.57;;;9.27;;
5175;SDS011;2607;50.934;6.934;2023-07-08T00:23:17;8.30;;;7.47;;
5175;SDS011;2607;50.934;6.934;2023-07-08T00:25:46;12.03;;;10.67;;
5175;SDS011;2607;50.934;6.934;2023-07-08T00:28:17;10.90;;;9.60;;
5175;SDS011;2607;50.934;6.934;2023-07-08T00:30:44;14.13;;;11.07;;
5175;SDS011;2607;50.934;6.934;2023-07-08T00:33:10;11.90;;;10.70;;
5175;SDS011;2607;50.934;6.934;2023-07-08T00:35:40;44.80;;;31.23;;
5175;SDS011;2607;50.934;6.934;2023-07-08T00:38:10;11.60;;;9.40;;
5175;SDS011;2607;50.934;6.934;2023-07-08T00:40:50;10.10;;;7.93;;
5175;SDS011;2607;50.934;6.934;2023-07-08T00:43:18;7.37;;;6.67;;
5175;SDS011;2607;50.934;6.934;2023-07-08T00:45:48;11.83;;;7.60;;
5175;SDS011;2607;50.934;6.934;2023-07-08T00:48:24;12.20;;;7.27;;
5175;SDS011;2607;50.934;6.934;2023-07-08T00:50:55;7.50;;;6.30;;
5175;SDS011;2607;50.934;6.934;2023-07-08T00:53:31;10.53;;;6.73;;
5175;SDS011;2607;50.934;6.934;2023-07-08T00:56:21;7.67;;;6.90;;
5175;SDS011;2607;50.934;6.934;2023-07-08T00:58:49;12.70;;;7.50;;
5175;SDS011;2607;50.934;6.934;2023-07-08T01:01:20;9.07;;;7.60;;
5175;SDS011;2607;50.934;6.934;2023-07-08T01:03:50;14.23;;;7.23;;
5175;SDS011;2607;50.934;6.934;2023-07-08T01:06:26;7.80;;;6.57;;
5175;SDS011;2607;50.934;6.934;2023-07-08T01:08:57;9.53;;;6.43;;
5175;SDS011;2607;50.934;6.934;2023-07-08T01:11:27;7.93;;;6.77;;
5175;SDS011;2607;50.934;6.934;2023-07-08T01:13:53;7.90;;;6.57;;
5175;SDS011;2607;50.934;6.934;2023-07-08T01:16:19;9.20;;;8.30;;
5175;SDS011;2607;50.934;6.934;2023-07-08T01:18:44;6.90;;;6.07;;
5175;SDS011;2607;50.934;6.934;2023-07-08T01:21:35;7.60;;;6.90;;
5175;SDS011;2607;50.934;6.934;2023-07-08T01:24:04;9.10;;;6.07;;
5175;SDS011;2607;50.934;6.934;2023-07-08T01:26:35;7.87;;;7.00;;
5175;SDS011;2607;50.934;6.934;2023-07-08T01:29:05;8.93;;;6.83;;
5175;SDS011;2607;50.934;6.934;2023-07-08T01:31:32;8.37;;;6.20;;
5175;SDS011;2607;50.934;6.934;2023-07-08T01:33:58;7.83;;;6.70;;
5175;SDS011;2607;50.934;6.934;2023-07-08T01:36:24;9.13;;;7.30;;
5175;SDS011;2607;50.934;6.934;2023-07-08T01:38:52;16.80;;;8.33;;
5175;SDS011;2607;50.934;6.934;2023-07-08T01:41:17;7.03;;;6.33;;
5175;SDS011;2607;50.934;6.934;2023-07-08T01:43:43;8.03;;;6.13;;
5175;SDS011;2607;50.934;6.934;2023-07-08T01:46:17;6.63;;;6.00;;
5175;SDS011;2607;50.934;6.934;2023-07-08T01:48:49;13.63;;;11.57;;
5175;SDS011;2607;50.934;6.934;2023-07-08T01:51:21;11.00;;;8.90;;
5175;SDS011;2607;50.934;6.934;2023-07-08T01:53:49;7.63;;;6.63;;
5175;SDS011;2607;50.934;6.934;2023-07-08T01:56:14;9.10;;;6.07;;
5175;SDS011;2607;50.934;6.934;2023-07-08T01:58:41;7.00;;;6.33;;
5175;SDS011;2607;50.934;6.934;2023-07-08T02:01:07;10.00;;;6.60;;
5175;SDS011;2607;50.934;6.934;2023-07-08T02:03:32;6.70;;;5.47;;
5175;SDS011;2607;50.934;6.934;2023-07-08T02:05:59;9.90;;;7.37;;
5175;SDS011;2607;50.934;6.934;2023-07-08T02:08:24;13.73;;;7.30;;
5175;SDS011;2607;50.934;6.934;2023-07-08T02:10:51;13.13;;;7.00;;
5175;SDS011;2607;50.934;6.934;2023-07-08T02:13:18;8.67;;;5.80;;
5175;SDS011;2607;50.934;6.934;2023-07-08T02:15:45;6.83;;;6.10;;
5175;SDS011;2607;50.934;6.934;2023-07-08T02:18:10;6.20;;;5.60;;
5175;SDS011;2607;50.934;6.934;2023-07-08T02:20:36;7.73;;;6.67;;
5175;SDS011;2607;50.934;6.934;2023-07-08T02:23:01;11.83;;;6.67;;
5175;SDS011;2607;50.934;6.934;2023-07-08T02:25:27;9.90;;;6.30;;
5175;SDS011;2607;50.934;6.934;2023-07-08T02:27:53;5.87;;;5.17;;
5175;SDS011;2607;50.934;6.934;2023-07-08T02:30:25;6.13;;;5.53;;
5175;SDS011;2607;50.934;6.934;2023-07-08T02:32:52;5.87;;;5.27;;
5175;SDS011;2607;50.934;6.934;2023-07-08T02:35:30;5.47;;;5.07;;
5175;SDS011;2607;50.934;6.934;2023-07-08T02:37:56;6.00;;;5.37;;
5175;SDS011;2607;50.934;6.934;2023-07-08T02:40:23;6.17;;;5.60;;
5175;SDS011;2607;50.934;6.934;2023-07-08T02:42:49;5.70;;;5.30;;
5175;SDS011;2607;50.934;6.934;2023-07-08T02:45:15;7.03;;;5.50;;
5175;SDS011;2607;50.934;6.934;2023-07-08T02:47:42;5.57;;;5.07;;
5175;SDS011;2607;50.934;6.934;2023-07-08T02:50:08;5.87;;;5.37;;
5175;SDS011;2607;50.934;6.934;2023-07-08T02:52:35;6.10;;;5.50;;
5175;SDS011;2607;50.934;6.934;2023-07-08T02:55:00;7.17;;;5.80;;
5175;SDS011;2607;50.934;6.934;2023-07-08T02:57:26;5.73;;;5.23;;
5175;SDS011;2607;50.934;6.934;2023-07-08T02:59:52;5.73;;;5.23;;
5175;SDS011;2607;50.934;6.934;2023-07-08T03:02:17;5.80;;;5.10;;
5175;SDS011;2607;50.934;6.934;2023-07-08T03:04:43;6.80;;;5.33;;
5175;SDS011;2607;50.934;6.934;2023-07-08T03:07:08;5.70;;;5.27;;
5175;SDS011;2607;50.934;6.934;2023-07-08T03:09:37;5.20;;;4.80;;
5175;SDS011;2607;50.934;6.934;2023-07-08T03:12:03;5.83;;;5.23;;
5175;SDS011;2607;50.934;6.934;2023-07-08T03:14:30;5.53;;;5.03;;
5175;SDS011;2607;50.934;6.934;2023-07-08T03:16:56;5.03;;;4.63;;
5175;SDS011;2607;50.934;6.934;2023-07-08T03:19:21;6.80;;;4.73;;
5175;SDS011;2607;50.934;6.934;2023-07-08T03:21:47;6.47;;;5.53;;
5175;SDS011;2607;50.934;6.934;2023-07-08T03:24:13;6.03;;;5.43;;
5175;SDS011;2607;50.934;6.934;2023-07-08T03:26:38;5.33;;;4.93;;
5175;SDS011;2607;50.934;6.934;2023-07-08T03:29:05;5.23;;;4.57;;
5175;SDS011;2607;50.934;6.934;2023-07-08T03:31:33;5.03;;;4.63;;
5175;SDS011;2607;50.934;6.934;2023-07-08T03:33:59;5.00;;;4.60;;
5175;SDS011;2607;50.934;6.934;2023-07-08T03:36:24;6.33;;;4.60;;
5175;SDS011;2607;50.934;6.934;2023-07-08T03:38:52;5.47;;;4.97;;
5175;SDS011;2607;50.934;6.934;2023-07-08T03:41:19;5.40;;;5.00;;
5175;SDS011;2607;50.934;6.934;2023-07-08T03:43:45;5.20;;;4.80;;
5175;SDS011;2607;50.934;6.934;2023-07-08T03:46:15;11.73;;;4.50;;
5175;SDS011;2607;50.934;6.934;2023-07-08T03:48:41;4.80;;;4.40;;
5175;SDS011;2607;50.934;6.934;2023-07-08T03:51:08;4.60;;;4.20;;
5175;SDS011;2607;50.934;6.934;2023-07-08T03:53:40;5.00;;;4.50;;
5175;SDS011;2607;50.934;6.934;2023-07-08T03:56:05;7.53;;;5.07;;
5175;SDS011;2607;50.934;6.934;2023-07-08T03:58:33;5.63;;;5.00;;
5175;SDS011;2607;50.934;6.934;2023-07-08T04:00:58;8.83;;;4.80;;
5175;SDS011;2607;50.934;6.934;2023-07-08T04:03:24;5.07;;;4.67;;
5175;SDS011;2607;50.934;6.934;2023-07-08T04:05:49;5.70;;;4.60;;
5175;SDS011;2607;50.934;6.934;2023-07-08T04:08:15;6.53;;;5.30;;
5175;SDS011;2607;50.934;6.934;2023-07-08T04:10:40;4.80;;;4.40;;
5175;SDS011;2607;50.934;6.934;2023-07-08T04:13:06;5.30;;;4.67;;
5175;SDS011;2607;50.934;6.934;2023-07-08T04:15:31;5.27;;;4.77;;
5175;SDS011;2607;50.934;6.934;2023-07-08T04:17:57;8.53;;;4.83;;
5175;SDS011;2607;50.934;6.934;2023-07-08T04:20:23;7.37;;;4.63;;
5175;SDS011;2607;50.934;6.934;2023-07-08T04:22:48;4.87;;;4.40;;
5175;SDS011;2607;50.934;6.934;2023-07-08T04:25:14;4.83;;;4.43;;
5175;SDS011;2607;50.934;6.934;2023-07-08T04:27:40;5.17;;;4.70;;
5175;SDS011;2607;50.934;6.934;2023-07-08T04:30:06;5.73;;;4.40;;
5175;SDS011;2607;50.934;6.934;2023-07-08T04:32:35;5.60;;;4.43;;
5175;SDS011;2607;50.934;6.934;2023-07-08T04:35:02;5.73;;;4.70;;
5175;SDS011;2607;50.934;6.934;2023-07-08T04:37:28;7.53;;;4.50;;
5175;SDS011;2607;50.934;6.934;2023-07-08T04:39:54;5.20;;;4.30;;
5175;SDS011;2607;50.934;6.934;2023-07-08T04:42:19;4.50;;;4.10;;
5175;SDS011;2607;50.934;6.934;2023-07-08T04:44:45;7.07;;;5.40;;
5175;SDS011;2607;50.934;6.934;2023-07-08T04:47:10;7.80;;;4.90;;
5175;SDS011;2607;50.934;6.934;2023-07-08T04:49:39;4.70;;;4.40;;
5175;SDS011;2607;50.934;6.934;2023-07-08T04:52:06;4.67;;;4.30;;
5175;SDS011;2607;50.934;6.934;2023-07-08T04:54:32;5.10;;;4.47;;
5175;SDS011;2607;50.934;6.934;2023-07-08T04:56:57;5.30;;;4.87;;
5175;SDS011;2607;50.934;6.934;2023-07-08T04:59:23;5.90;;;4.57;;
5175;SDS011;2607;50.934;6.934;2023-07-08T05:01:50;6.00;;;4.80;;
5175;SDS011;2607;50.934;6.934;2023-07-08T05:04:20;5.80;;;5.30;;
5175;SDS011;2607;50.934;6.934;2023-07-08T05:06:47;17.13;;;12.60;;
5175;SDS011;2607;50.934;6.934;2023-07-08T05:09:13;8.00;;;5.63;;
5175;SDS011;2607;50.934;6.934;2023-07-08T05:11:38;8.00;;;7.20;;
5175;SDS011;2607;50.934;6.934;2023-07-08T05:14:04;6.23;;;5.63;;
5175;SDS011;2607;50.934;6.934;2023-07-08T05:16:32;5.70;;;5.20;;
5175;SDS011;2607;50.934;6.934;2023-07-08T05:19:00;5.47;;;5.00;;
5175;SDS011;2607;50.934;6.934;2023-07-08T05:21:28;6.70;;;6.10;;
5175;SDS011;2607;50.934;6.934;2023-07-08T05:23:58;33.70;;;23.63;;
5175;SDS011;2607;50.934;6.934;2023-07-08T05:26:24;32.47;;;24.07;;
5175;SDS011;2607;50.934;6.934;2023-07-08T05:28:49;8.80;;;7.90;;
5175;SDS011;2607;50.934;6.934;2023-07-08T05:31:15;5.53;;;5.03;;
5175;SDS011;2607;50.934;6.934;2023-07-08T05:33:41;5.47;;;4.80;;
5175;SDS011;2607;50.934;6.934;2023-07-08T05:36:06;9.20;;;5.27;;
5175;SDS011;2607;50.934;6.934;2023-07-08T05:38:32;7.67;;;5.10;;
5175;SDS011;2607;50.934;6.934;2023-07-08T05:40:58;9.53;;;8.53;;
5175;SDS011;2607;50.934;6.934;2023-07-08T05:43:24;11.13;;;8.60;;
5175;SDS011;2607;50.934;6.934;2023-07-08T05:45:50;5.07;;;4.67;;
5175;SDS011;2607;50.934;6.934;2023-07-08T05:48:16;5.30;;;4.80;;
5175;SDS011;2607;50.934;6.934;2023-07-08T05:50:42;4.90;;;4.50;;
5175;SDS011;2607;50.934;6.934;2023-07-08T05:53:10;4.73;;;4.43;;
5175;SDS011;2607;50.934;6.934;2023-07-08T05:55:36;6.80;;;6.20;;
5175;SDS011;2607;50.934;6.934;2023-07-08T05:58:02;5.80;;;5.40;;
5175;SDS011;2607;50.934;6.934;2023-07-08T06:00:28;5.77;;;5.17;;
5175;SDS011;2607;50.934;6.934;2023-07-08T06:02:53;5.73;;;5.13;;
5175;SDS011;2607;50.934;6.934;2023-07-08T06:05:19;7.13;;;6.43;;
5175;SDS011;2607;50.934;6.934;2023-07-08T06:07:44;8.67;;;6.20;;
5175;SDS011;2607;50.934;6.934;2023-07-08T06:10:10;6.67;;;5.97;;
5175;SDS011;2607;50.934;6.934;2023-07-08T06:12:36;4.60;;;4.20;;
5175;SDS011;2607;50.934;6.934;2023-07-08T06:15:02;4.67;;;4.17;;
5175;SDS011;2607;50.934;6.934;2023-07-08T06:17:28;5.47;;;4.97;;
5175;SDS011;2607;50.934;6.934;2023-07-08T06:19:53;6.00;;;5.50;;
5175;SDS011;2607;50.934;6.934;2023-07-08T06:22:19;5.20;;;4.67;;
5175;SDS011;2607;50.934;6.934;2023-07-08T06:24:46;6.93;;;6.20;;
5175;SDS011;2607;50.934;6.934;2023-07-08T06:27:12;5.07;;;4.67;;
5175;SDS011;2607;50.934;6.934;2023-07-08T06:29:38;4.80;;;4.50;;
5175;SDS011;2607;50.934;6.934;2023-07-08T06:32:03;4.80;;;4.33;;
5175;SDS011;2607;50.934;6.934;2023-07-08T06:34:29;7.03;;;5.10;;
5175;SDS011;2607;50.934;6.934;2023-07-08T06:36:55;7.80;;;4.63;;
5175;SDS011;2607;50.934;6.934;2023-07-08T06:39:20;4.90;;;4.53;;
5175;SDS011;2607;50.934;6.934;2023-07-08T06:41:46;4.93;;;4.47;;
5175;SDS011;2607;50.934;6.934;2023-07-08T06:44:12;5.23;;;4.70;;
5175;SDS011;2607;50.934;6.934;2023-07-08T06:46:38;5.20;;;4.70;;
5175;SDS011;2607;50.934;6.934;2023-07-08T06:49:04;6.10;;;5.07;;
5175;SDS011;2607;50.934;6.934;2023-07-08T06:51:33;8.83;;;7.83;;
5175;SDS011;2607;50.934;6.934;2023-07-08T06:53:59;40.90;;;30.63;;
5175;SDS011;2607;50.934;6.934;2023-07-08T06:56:29;21.90;;;16.67;;
5175;SDS011;2607;50.934;6.934;2023-07-08T06:58:54;24.50;;;18.37;;
5175;SDS011;2607;50.934;6.934;2023-07-08T07:01:20;12.37;;;8.00;;
5175;SDS011;2607;50.934;6.934;2023-07-08T07:03:46;13.70;;;9.40;;
5175;SDS011;2607;50.934;6.934;2023-07-08T07:06:11;7.73;;;6.93;;
5175;SDS011;2607;50.934;6.934;2023-07-08T07:08:37;31.50;;;18.93;;
5175;SDS011;2607;50.934;6.934;2023-07-08T07:11:02;38.27;;;27.83;;
5175;SDS011;2607;50.934;6.934;2023-07-08T07:13:28;69.30;;;46.10;;
5175;SDS011;2607;50.934;6.934;2023-07-08T07:15:54;36.30;;;26.77;;
5175;SDS011;2607;50.934;6.934;2023-07-08T07:18:19;17.20;;;13.07;;
5175;SDS011;2607;50.934;6.934;2023-07-08T07:20:49;18.00;;;11.53;;
5175;SDS011;2607;50.934;6.934;2023-07-08T07:23:17;8.03;;;7.23;;
5175;SDS011;2607;50.934;6.934;2023-07-08T07:25:44;6.90;;;6.20;;
5175;SDS011;2607;50.934;6.934;2023-07-08T07:28:12;9.30;;;6.80;;
5175;SDS011;2607;50.934;6.934;2023-07-08T07:30:38;7.70;;;6.90;;
5175;SDS011;2607;50.934;6.934;2023-07-08T07:33:03;9.10;;;5.90;;
5175;SDS011;2607;50.934;6.934;2023-07-08T07:35:29;6.57;;;5.33;;
5175;SDS011;2607;50.934;6.934;2023-07-08T07:37:55;8.40;;;5.57;;
5175;SDS011;2607;50.934;6.934;2023-07-08T07:40:20;5.93;;;5.43;;
5175;SDS011;2607;50.934;6.934;2023-07-08T07:42:46;17.63;;;14.23;;
5175;SDS011;2607;50.934;6.934;2023-07-08T07:45:12;45.80;;;31.53;;
5175;SDS011;2607;50.934;6.934;2023-07-08T07:47:38;37.37;;;29.30;;
5175;SDS011;2607;50.934;6.934;2023-07-08T07:50:04;47.13;;;35.07;;
5175;SDS011;2607;50.934;6.934;2023-07-08T07:52:32;39.80;;;26.90;;
5175;SDS011;2607;50.934;6.934;2023-07-08T07:54:57;13.10;;;10.43;;
5175;SDS011;2607;50.934;6.934;2023-07-08T07:57:23;22.70;;;17.20;;
5175;SDS011;2607;50.934;6.934;2023-07-08T07:59:49;21.97;;;14.43;;
5175;SDS011;2607;50.934;6.934;2023-07-08T08:02:15;13.40;;;9.90;;
5175;SDS011;2607;50.934;6.934;2023-07-08T08:04:41;6.23;;;5.70;;
5175;SDS011;2607;50.934;6.934;2023-07-08T08:07:07;5.80;;;5.30;;
5175;SDS011;2607;50.934;6.934;2023-07-08T08:09:33;10.80;;;7.53;;
5175;SDS011;2607;50.934;6.934;2023-07-08T08:12:00;8.37;;;5.90;;
5175;SDS011;2607;50.934;6.934;2023-07-08T08:14:27;6.20;;;5.47;;
5175;SDS011;2607;50.934;6.934;2023-07-08T08:16:52;6.30;;;5.70;;
5175;SDS011;2607;50.934;6.934;2023-07-08T08:19:18;6.10;;;5.40;;
5175;SDS011;2607;50.934;6.934;2023-07-08T08:21:43;6.47;;;5.80;;
5175;SDS011;2607;50.934;6.934;2023-07-08T08:24:09;7.70;;;5.37;;
5175;SDS011;2607;50.934;6.934;2023-07-08T08:26:35;5.80;;;5.33;;
5175;SDS011;2607;50.934;6.934;2023-07-08T08:29:00;10.87;;;5.73;;
5175;SDS011;2607;50.934;6.934;2023-07-08T08:31:27;6.20;;;5.63;;
5175;SDS011;2607;50.934;6.934;2023-07-08T08:33:53;8.60;;;5.87;;
5175;SDS011;2607;50.934;6.934;2023-07-08T08:36:19;8.07;;;6.67;;
5175;SDS011;2607;50.934;6.934;2023-07-08T08:38:45;29.47;;;20.10;;
5175;SDS011;2607;50.934;6.934;2023-07-08T08:41:12;10.27;;;7.73;;
5175;SDS011;2607;50.934;6.934;2023-07-08T08:43:39;18.60;;;14.90;;
5175;SDS011;2607;50.934;6.934;2023-07-08T08:46:09;10.33;;;7.53;;
5175;SDS011;2607;50.934;6.934;2023-07-08T08:48:43;24.23;;;18.33;;
5175;SDS011;2607;50.934;6.934;2023-07-08T08:51:19;22.00;;;14.80;;
5175;SDS011;2607;50.934;6.934;2023-07-08T08:53:44;12.80;;;8.90;;
5175;SDS011;2607;50.934;6.934;2023-07-08T08:56:18;7.77;;;7.07;;
5175;SDS011;2607;50.934;6.934;2023-07-08T08:58:58;16.80;;;11.63;;
5175;SDS011;2607;50.934;6.934;2023-07-08T09:01:27;14.80;;;11.60;;
5175;SDS011;2607;50.934;6.934;2023-07-08T09:03:57;18.73;;;8.30;;
5175;SDS011;2607;50.934;6.934;2023-07-08T09:06:28;13.53;;;7.07;;
5175;SDS011;2607;50.934;6.934;2023-07-08T09:08:56;45.87;;;31.40;;
5175;SDS011;2607;50.934;6.934;2023-07-08T09:22:32;13.77;;;12.27;;
5175;SDS011;2607;50.934;6.934;2023-07-08T09:27:50;12.20;;;7.73;;
5175;SDS011;2607;50.934;6.934;2023-07-08T09:30:16;30.17;;;19.87;;
5175;SDS011;2607;50.934;6.934;2023-07-08T09:32:45;19.30;;;15.07;;
5175;SDS011;2607;50.934;6.934;2023-07-08T09:35:17;24.67;;;14.87;;
5175;SDS011;2607;50.934;6.934;2023-07-08T09:37:45;65.27;;;45.80;;
5175;SDS011;2607;50.934;6.934;2023-07-08T09:42:54;57.50;;;39.27;;
5175;SDS011;2607;50.934;6.934;2023-07-08T09:45:25;21.60;;;17.93;;
5175;SDS011;2607;50.934;6.934;2023-07-08T09:47:57;21.50;;;17.40;;
5175;SDS011;2607;50.934;6.934;2023-07-08T09:50:27;49.60;;;35.37;;
5175;SDS011;2607;50.934;6.934;2023-07-08T09:52:55;44.53;;;32.70;;
5175;SDS011;2607;50.934;6.934;2023-07-08T09:55:22;58.03;;;40.40;;
5175;SDS011;2607;50.934;6.934;2023-07-08T09:57:49;26.93;;;21.63;;
5175;SDS011;2607;50.934;6.934;2023-07-08T10:00:18;32.80;;;23.17;;
5175;SDS011;2607;50.934;6.934;2023-07-08T10:02:52;16.83;;;12.17;;
5175;SDS011;2607;50.934;6.934;2023-07-08T10:05:27;37.30;;;27.27;;
5175;SDS011;2607;50.934;6.934;2023-07-08T10:07:58;67.93;;;49.50;;
5175;SDS011;2607;50.934;6.934;2023-07-08T10:10:29;51.37;;;36.73;;
5175;SDS011;2607;50.934;6.934;2023-07-08T10:12:59;25.83;;;20.57;;
5175;SDS011;2607;50.934;6.934;2023-07-08T10:15:35;65.93;;;47.00;;
5175;SDS011;2607;50.934;6.934;2023-07-08T10:18:04;78.90;;;54.63;;
5175;SDS011;2607;50.934;6.934;2023-07-08T10:21:02;77.53;;;57.47;;
5175;SDS011;2607;50.934;6.934;2023-07-08T10:26:16;148.83;;;112.87;;
5175;SDS011;2607;50.934;6.934;2023-07-08T10:34:28;126.80;;;91.43;;
5175;SDS011;2607;50.934;6.934;2023-07-08T10:37:04;153.53;;;110.53;;
5175;SDS011;2607;50.934;6.934;2023-07-08T10:42:23;100.53;;;75.53;;
5175;SDS011;2607;50.934;6.934;2023-07-08T10:45:12;61.33;;;47.93;;
5175;SDS011;2607;50.934;6.934;2023-07-08T10:55:52;62.13;;;48.47;;
5175;SDS011;2607;50.934;6.934;2023-07-08T11:01:37;140.13;;;105.63;;
5175;SDS011;2607;50.934;6.934;2023-07-08T11:06:59;105.30;;;81.00;;
5175;SDS011;2607;50.934;6.934;2023-07-08T11:09:35;182.40;;;141.90;;
5175;SDS011;2607;50.934;6.934;2023-07-08T11:18:02;126.00;;;90.00;;
5175;SDS011;2607;50.934;6.934;2023-07-08T11:20:54;134.50;;;102.23;;
5175;SDS011;2607;50.934;6.934;2023-07-08T11:23:30;113.70;;;86.00;;
5175;SDS011;2607;50.934;6.934;2023-07-08T11:28:48;120.93;;;94.37;;
5175;SDS011;2607;50.934;6.934;2023-07-08T11:31:18;109.53;;;75.30;;
5175;SDS011;2607;50.934;6.934;2023-07-08T11:33:44;80.60;;;60.90;;
5175;SDS011;2607;50.934;6.934;2023-07-08T11:36:11;73.10;;;56.43;;
5175;SDS011;2607;50.934;6.934;2023-07-08T11:38:38;169.37;;;132.27;;
5175;SDS011;2607;50.934;6.934;2023-07-08T11:41:15;213.30;;;166.70;;
5175;SDS011;2607;50.934;6.934;2023-07-08T11:43:47;86.90;;;72.23;;
5175;SDS011;2607;50.934;6.934;2023-07-08T11:46:20;98.87;;;75.53;;
5175;SDS011;2607;50.934;6.934;2023-07-08T11:48:50;119.63;;;96.53;;
5175;SDS011;2607;50.934;6.934;2023-07-08T11:51:19;67.38;;;52.65;;
5175;SDS011;2607;50.934;6.934;2023-07-08T11:53:50;127.80;;;101.38;;
5175;SDS011;2607;50.934;6.934;2023-07-08T11:56:24;104.15;;;74.50;;
5175;SDS011;2607;50.934;6.934;2023-07-08T12:01:26;75.18;;;59.47;;
5175;SDS011;2607;50.934;6.934;2023-07-08T12:07:16;249.05;;;192.20;;
5175;SDS011;2607;50.934;6.934;2023-07-08T12:10:05;149.60;;;115.15;;
5175;SDS011;2607;50.934;6.934;2023-07-08T12:12:32;156.68;;;124.43;;
5175;SDS011;2607;50.934;6.934;2023-07-08T12:15:07;207.68;;;161.38;;
5175;SDS011;2607;50.934;6.934;2023-07-08T12:17:42;120.60;;;97.07;;
5175;SDS011;2607;50.934;6.934;2023-07-08T12:20:19;78.00;;;61.83;;
5175;SDS011;2607;50.934;6.934;2023-07-08T12:22:48;115.60;;;91.07;;
5175;SDS011;2607;50.934;6.934;2023-07-08T12:25:15;82.68;;;66.30;;
5175;SDS011;2607;50.934;6.934;2023-07-08T12:27:43;130.52;;;106.05;;
5175;SDS011;2607;50.934;6.934;2023-07-08T12:30:10;117.82;;;95.93;;
5175;SDS011;2607;50.934;6.934;2023-07-08T12:32:37;123.22;;;93.47;;
5175;SDS011;2607;50.934;6.934;2023-07-08T12:35:04;151.23;;;120.63;;
5175;SDS011;2607;50.934;6.934;2023-07-08T12:37:34;55.40;;;40.17;;
5175;SDS011;2607;50.934;6.934;2023-07-08T12:40:00;195.02;;;155.38;;
5175;SDS011;2607;50.934;6.934;2023-07-08T12:42:30;131.25;;;103.05;;
5175;SDS011;2607;50.934;6.934;2023-07-08T12:44:56;85.55;;;67.72;;
5175;SDS011;2607;50.934;6.934;2023-07-08T12:47:22;97.10;;;78.93;;
5175;SDS011;2607;50.934;6.934;2023-07-08T12:49:48;31.80;;;26.30;;
5175;SDS011;2607;50.934;6.934;2023-07-08T12:52:23;64.13;;;51.00;;
5175;SDS011;2607;50.934;6.934;2023-07-08T12:54:49;42.33;;;33.22;;
5175;SDS011;2607;50.934;6.934;2023-07-08T12:57:18;71.10;;;57.60;;
5175;SDS011;2607;50.934;6.934;2023-07-08T12:59:44;36.95;;;31.38;;
5175;SDS011;2607;50.934;6.934;2023-07-08T13:02:19;15.60;;;11.73;;
5175;SDS011;2607;50.934;6.934;2023-07-08T13:04:50;59.67;;;49.15;;
5175;SDS011;2607;50.934;6.934;2023-07-08T13:07:33;49.22;;;41.22;;
5175;SDS011;2607;50.934;6.934;2023-07-08T13:10:07;51.08;;;42.03;;
5175;SDS011;2607;50.934;6.934;2023-07-08T13:12:42;51.05;;;36.13;;
5175;SDS011;2607;50.934;6.934;2023-07-08T13:15:11;17.98;;;14.85;;
5175;SDS011;2607;50.934;6.934;2023-07-08T13:17:44;165.15;;;123.82;;
5175;SDS011;2607;50.934;6.934;2023-07-08T13:20:14;159.63;;;124.00;;
5175;SDS011;2607;50.934;6.934;2023-07-08T13:22:40;72.53;;;58.47;;
5175;SDS011;2607;50.934;6.934;2023-07-08T13:25:13;100.80;;;85.45;;
5175;SDS011;2607;50.934;6.934;2023-07-08T13:27:41;115.78;;;97.50;;
5175;SDS011;2607;50.934;6.934;2023-07-08T13:30:17;164.80;;;126.57;;
5175;SDS011;2607;50.934;6.934;2023-07-08T13:32:44;80.47;;;65.75;;
5175;SDS011;2607;50.934;6.934;2023-07-08T13:35:46;66.43;;;55.90;;
5175;SDS011;2607;50.934;6.934;2023-07-08T13:38:05;41.22;;;34.25;;
5175;SDS011;2607;50.934;6.934;2023-07-08T13:40:37;66.30;;;50.72;;
5175;SDS011;2607;50.934;6.934;2023-07-08T13:43:10;47.92;;;38.75;;
5175;SDS011;2607;50.934;6.934;2023-07-08T13:45:35;94.93;;;72.47;;
5175;SDS011;2607;50.934;6.934;2023-07-08T13:50:55;98.60;;;75.03;;
5175;SDS011;2607;50.934;6.934;2023-07-08T13:53:24;42.30;;;32.20;;
5175;SDS011;2607;50.934;6.934;2023-07-08T13:55:59;60.55;;;44.38;;
5175;SDS011;2607;50.934;6.934;2023-07-08T13:58:27;48.97;;;38.85;;
5175;SDS011;2607;50.934;6.934;2023-07-08T14:00:54;42.90;;;34.50;;
5175;SDS011;2607;50.934;6.934;2023-07-08T14:03:20;57.70;;;43.55;;
5175;SDS011;2607;50.934;6.934;2023-07-08T14:05:46;48.10;;;39.42;;
5175;SDS011;2607;50.934;6.934;2023-07-08T14:08:15;53.75;;;41.38;;
5175;SDS011;2607;50.934;6.934;2023-07-08T14:10:42;81.15;;;61.88;;
5175;SDS011;2607;50.934;6.934;2023-07-08T14:13:10;88.63;;;64.93;;
5175;SDS011;2607;50.934;6.934;2023-07-08T14:15:36;32.67;;;25.45;;
5175;SDS011;2607;50.934;6.934;2023-07-08T14:18:03;81.53;;;59.92;;
5175;SDS011;2607;50.934;6.934;2023-07-08T14:20:30;113.80;;;80.00;;
5175;SDS011;2607;50.934;6.934;2023-07-08T14:22:56;70.03;;;51.40;;
5175;SDS011;2607;50.934;6.934;2023-07-08T14:25:21;19.23;;;14.93;;
5175;SDS011;2607;50.934;6.934;2023-07-08T14:27:48;13.15;;;11.18;;
5175;SDS011;2607;50.934;6.934;2023-07-08T14:30:15;62.45;;;47.00;;
5175;SDS011;2607;50.934;6.934;2023-07-08T14:32:40;84.75;;;63.50;;
5175;SDS011;2607;50.934;6.934;2023-07-08T14:37:44;47.28;;;36.65;;
5175;SDS011;2607;50.934;6.934;2023-07-08T14:42:56;56.38;;;39.72;;
5175;SDS011;2607;50.934;6.934;2023-07-08T14:45:29;117.43;;;90.70;;
5175;SDS011;2607;50.934;6.934;2023-07-08T14:47:56;156.40;;;119.28;;
5175;SDS011;2607;50.934;6.934;2023-07-08T14:50:22;121.07;;;91.47;;
5175;SDS011;2607;50.934;6.934;2023-07-08T14:52:50;123.25;;;95.13;;
5175;SDS011;2607;50.934;6.934;2023-07-08T14:55:15;98.28;;;72.10;;
5175;SDS011;2607;50.934;6.934;2023-07-08T14:57:45;81.10;;;59.28;;
5175;SDS011;2607;50.934;6.934;2023-07-08T15:00:13;71.00;;;55.70;;
5175;SDS011;2607;50.934;6.934;2023-07-08T15:02:41;28.13;;;23.70;;
5175;SDS011;2607;50.934;6.934;2023-07-08T15:08:04;20.75;;;15.77;;
5175;SDS011;2607;50.934;6.934;2023-07-08T15:10:30;55.72;;;42.30;;
5175;SDS011;2607;50.934;6.934;2023-07-08T15:12:58;68.22;;;47.88;;
5175;SDS011;2607;50.934;6.934;2023-07-08T15:15:28;57.20;;;39.60;;
5175;SDS011;2607;50.934;6.934;2023-07-08T15:17:59;36.00;;;28.95;;
5175;SDS011;2607;50.934;6.934;2023-07-08T15:20:31;55.80;;;41.75;;
5175;SDS011;2607;50.934;6.934;2023-07-08T15:22:57;44.13;;;31.98;;
5175;SDS011;2607;50.934;6.934;2023-07-08T15:25:23;35.05;;;26.00;;
5175;SDS011;2607;50.934;6.934;2023-07-08T15:27:50;34.23;;;27.33;;
5175;SDS011;2607;50.934;6.934;2023-07-08T15:30:25;40.95;;;29.23;;
5175;SDS011;2607;50.934;6.934;2023-07-08T15:32:52;41.40;;;34.05;;
5175;SDS011;2607;50.934;6.934;2023-07-08T15:35:22;78.00;;;59.70;;
5175;SDS011;2607;50.934;6.934;2023-07-08T15:37:50;87.50;;;69.37;;
5175;SDS011;2607;50.934;6.934;2023-07-08T15:40:17;128.15;;;96.47;;
5175;SDS011;2607;50.934;6.934;2023-07-08T15:42:48;114.47;;;88.63;;
5175;SDS011;2607;50.934;6.934;2023-07-08T15:45:18;91.87;;;68.23;;
5175;SDS011;2607;50.934;6.934;2023-07-08T15:47:49;78.25;;;60.22;;
5175;SDS011;2607;50.934;6.934;2023-07-08T15:50:16;70.43;;;56.87;;
5175;SDS011;2607;50.934;6.934;2023-07-08T15:52:44;60.50;;;49.50;;
5175;SDS011;2607;50.934;6.934;2023-07-08T15:55:10;72.10;;;56.70;;
5175;SDS011;2607;50.934;6.934;2023-07-08T15:57:42;81.23;;;59.87;;
5175;SDS011;2607;50.934;6.934;2023-07-08T16:00:15;71.07;;;53.23;;
5175;SDS011;2607;50.934;6.934;2023-07-08T16:02:45;88.80;;;64.77;;
5175;SDS011;2607;50.934;6.934;2023-07-08T16:05:17;67.40;;;50.70;;
5175;SDS011;2607;50.934;6.934;2023-07-08T16:07:44;50.60;;;37.30;;
5175;SDS011;2607;50.934;6.934;2023-07-08T16:10:14;78.77;;;56.23;;
5175;SDS011;2607;50.934;6.934;2023-07-08T16:12:40;189.83;;;150.50;;